sensor_id;sensor_type;location;lat;lon;timestamp;P1;P2;P0
50587;PMS7003;70782;50.514;30.816;2024-03-25T00:00:19;9.50;9.50;6.40
50587;PMS7003;70782;50.514;30.816;2024-03-25T00:01:22;7.10;7.10;5.50
50587;PMS7003;70782;50.514;30.816;2024-03-25T00:02:24;8.80;7.70;5.80
50587;PMS7003;70782;50.514;30.816;2024-03-25T00:03:26;10.00;8.80;6.40
50587;PMS7003;70782;50.514;30.816;2024-03-25T00:04:28;9.10;8.70;6.10
50587;PMS7003;70782;50.514;30.816;2024-03-25T00:05:31;9.50;9.20;6.20
50587;PMS7003;70782;50.514;30.816;2024-03-25T00:06:33;7.00;7.00;3.90
50587;PMS7003;70782;50.514;30.816;2024-03-25T00:07:36;8.90;8.60;6.50
50587;PMS7003;70782;50.514;30.816;2024-03-25T00:08:39;10.40;10.40;7.50
50587;PMS7003;70782;50.514;30.816;2024-03-25T00:09:41;12.30;10.80;7.70
50587;PMS7003;70782;50.514;30.816;2024-03-25T00:10:44;17.00;14.80;9.20
50587;PMS7003;70782;50.514;30.816;2024-03-25T00:11:46;18.10;15.80;10.10
50587;PMS7003;70782;50.514;30.816;2024-03-25T00:12:48;22.50;18.20;11.70
50587;PMS7003;70782;50.514;30.816;2024-03-25T00:13:50;21.20;19.40;11.80
50587;PMS7003;70782;50.514;30.816;2024-03-25T00:14:53;22.90;20.60;12.40
50587;PMS7003;70782;50.514;30.816;2024-03-25T00:15:55;23.20;19.00;13.40
50587;PMS7003;70782;50.514;30.816;2024-03-25T00:16:57;22.80;19.90;12.10
50587;PMS7003;70782;50.514;30.816;2024-03-25T00:18:00;17.80;15.70;11.60
50587;PMS7003;70782;50.514;30.816;2024-03-25T00:19:02;18.00;15.60;10.50
50587;PMS7003;70782;50.514;30.816;2024-03-25T00:20:05;14.80;12.20;7.30
50587;PMS7003;70782;50.514;30.816;2024-03-25T00:21:08;11.20;9.90;6.90
50587;PMS7003;70782;50.514;30.816;2024-03-25T00:22:11;11.40;9.70;6.50
50587;PMS7003;70782;50.514;30.816;2024-03-25T00:23:13;11.50;9.90;8.00
50587;PMS7003;70782;50.514;30.816;2024-03-25T00:24:15;11.20;9.60;6.20
50587;PMS7003;70782;50.514;30.816;2024-03-25T00:25:20;11.50;10.00;6.40
50587;PMS7003;70782;50.514;30.816;2024-03-25T00:26:27;9.80;8.90;6.90
50587;PMS7003;70782;50.514;30.816;2024-03-25T00:27:26;10.20;9.50;6.60
50587;PMS7003;70782;50.514;30.816;2024-03-25T00:28:29;11.20;9.80;6.60
50587;PMS7003;70782;50.514;30.816;2024-03-25T00:29:31;9.70;9.40;6.70
50587;PMS7003;70782;50.514;30.816;2024-03-25T00:30:33;12.30;9.20;7.30
50587;PMS7003;70782;50.514;30.816;2024-03-25T00:31:36;11.60;11.00;7.30
50587;PMS7003;70782;50.514;30.816;2024-03-25T00:32:38;10.00;8.10;6.10
50587;PMS7003;70782;50.514;30.816;2024-03-25T00:33:40;9.30;8.20;6.00
50587;PMS7003;70782;50.514;30.816;2024-03-25T00:34:43;8.20;8.20;6.20
50587;PMS7003;70782;50.514;30.816;2024-03-25T00:35:45;11.20;10.40;6.70
50587;PMS7003;70782;50.514;30.816;2024-03-25T00:36:47;11.50;10.50;7.10
50587;PMS7003;70782;50.514;30.816;2024-03-25T00:37:50;10.30;10.30;7.90
50587;PMS7003;70782;50.514;30.816;2024-03-25T00:38:52;11.40;10.10;7.50
50587;PMS7003;70782;50.514;30.816;2024-03-25T00:39:54;11.20;11.20;7.90
50587;PMS7003;70782;50.514;30.816;2024-03-25T00:40:57;13.30;13.00;8.30
50587;PMS7003;70782;50.514;30.816;2024-03-25T00:41:59;12.20;10.60;7.60
50587;PMS7003;70782;50.514;30.816;2024-03-25T00:43:01;14.40;12.40;9.00
50587;PMS7003;70782;50.514;30.816;2024-03-25T00:44:04;11.30;11.10;7.70
50587;PMS7003;70782;50.514;30.816;2024-03-25T00:45:06;14.00;12.90;9.50
50587;PMS7003;70782;50.514;30.816;2024-03-25T00:46:09;16.80;13.80;9.60
50587;PMS7003;70782;50.514;30.816;2024-03-25T00:47:11;16.20;15.40;9.70
50587;PMS7003;70782;50.514;30.816;2024-03-25T00:48:14;15.70;13.70;9.70
50587;PMS7003;70782;50.514;30.816;2024-03-25T00:49:16;16.50;16.10;11.70
50587;PMS7003;70782;50.514;30.816;2024-03-25T00:50:19;23.20;22.30;14.80
50587;PMS7003;70782;50.514;30.816;2024-03-25T00:51:21;26.50;25.50;17.20
50587;PMS7003;70782;50.514;30.816;2024-03-25T00:52:23;27.60;26.60;18.80
50587;PMS7003;70782;50.514;30.816;2024-03-25T00:53:25;23.70;23.30;16.80
50587;PMS7003;70782;50.514;30.816;2024-03-25T00:54:27;26.80;24.20;18.00
50587;PMS7003;70782;50.514;30.816;2024-03-25T00:55:32;23.40;20.60;15.70
50587;PMS7003;70782;50.514;30.816;2024-03-25T00:56:34;22.60;21.70;14.90
50587;PMS7003;70782;50.514;30.816;2024-03-25T00:57:37;19.10;18.90;14.00
50587;PMS7003;70782;50.514;30.816;2024-03-25T00:58:40;20.30;19.60;14.40
50587;PMS7003;70782;50.514;30.816;2024-03-25T00:59:42;18.30;14.60;7.60
50587;PMS7003;70782;50.514;30.816;2024-03-25T01:00:45;23.30;19.50;12.20
50587;PMS7003;70782;50.514;30.816;2024-03-25T01:01:47;21.10;20.70;14.50
50587;PMS7003;70782;50.514;30.816;2024-03-25T01:02:49;20.70;19.90;13.90
50587;PMS7003;70782;50.514;30.816;2024-03-25T01:03:52;18.40;18.20;13.50
50587;PMS7003;70782;50.514;30.816;2024-03-25T01:04:54;17.70;16.00;11.40
50587;PMS7003;70782;50.514;30.816;2024-03-25T01:05:56;16.30;16.30;12.00
50587;PMS7003;70782;50.514;30.816;2024-03-25T01:06:58;15.50;14.90;11.20
50587;PMS7003;70782;50.514;30.816;2024-03-25T01:08:01;16.00;14.60;11.20
50587;PMS7003;70782;50.514;30.816;2024-03-25T01:09:03;13.20;13.20;9.80
50587;PMS7003;70782;50.514;30.816;2024-03-25T01:10:06;12.70;12.00;9.50
50587;PMS7003;70782;50.514;30.816;2024-03-25T01:11:09;13.80;13.80;9.20
50587;PMS7003;70782;50.514;30.816;2024-03-25T01:12:11;15.50;14.80;9.20
50587;PMS7003;70782;50.514;30.816;2024-03-25T01:13:14;16.60;15.30;9.90
50587;PMS7003;70782;50.514;30.816;2024-03-25T01:14:16;12.90;12.40;9.60
50587;PMS7003;70782;50.514;30.816;2024-03-25T01:15:18;11.20;11.20;7.80
50587;PMS7003;70782;50.514;30.816;2024-03-25T01:16:20;9.10;9.00;7.50
50587;PMS7003;70782;50.514;30.816;2024-03-25T01:17:23;11.40;10.10;7.30
50587;PMS7003;70782;50.514;30.816;2024-03-25T01:18:25;10.60;9.10;6.50
50587;PMS7003;70782;50.514;30.816;2024-03-25T01:19:27;10.40;9.50;7.00
50587;PMS7003;70782;50.514;30.816;2024-03-25T01:20:29;10.10;9.60;6.40
50587;PMS7003;70782;50.514;30.816;2024-03-25T01:21:31;10.00;9.00;6.20
50587;PMS7003;70782;50.514;30.816;2024-03-25T01:22:34;9.80;9.10;6.10
50587;PMS7003;70782;50.514;30.816;2024-03-25T01:23:36;10.00;9.20;7.30
50587;PMS7003;70782;50.514;30.816;2024-03-25T01:24:38;9.90;9.90;7.40
50587;PMS7003;70782;50.514;30.816;2024-03-25T01:25:41;11.30;10.80;8.60
50587;PMS7003;70782;50.514;30.816;2024-03-25T01:26:43;10.00;10.00;7.10
50587;PMS7003;70782;50.514;30.816;2024-03-25T01:27:45;14.70;12.70;7.70
50587;PMS7003;70782;50.514;30.816;2024-03-25T01:28:48;14.30;14.30;10.60
50587;PMS7003;70782;50.514;30.816;2024-03-25T01:29:50;14.40;14.30;10.80
50587;PMS7003;70782;50.514;30.816;2024-03-25T01:30:52;13.20;13.20;10.30
50587;PMS7003;70782;50.514;30.816;2024-03-25T01:31:55;15.10;14.50;9.80
50587;PMS7003;70782;50.514;30.816;2024-03-25T01:32:57;13.40;12.60;9.40
50587;PMS7003;70782;50.514;30.816;2024-03-25T01:33:59;14.40;13.40;9.00
50587;PMS7003;70782;50.514;30.816;2024-03-25T01:35:01;13.90;12.10;8.20
50587;PMS7003;70782;50.514;30.816;2024-03-25T01:36:04;15.70;14.50;10.30
50587;PMS7003;70782;50.514;30.816;2024-03-25T01:37:07;11.91;10.36;4.55
50587;PMS7003;70782;50.514;30.816;2024-03-25T01:38:09;21.70;20.20;13.60
50587;PMS7003;70782;50.514;30.816;2024-03-25T01:39:11;20.10;16.90;11.70
50587;PMS7003;70782;50.514;30.816;2024-03-25T01:40:14;17.50;15.00;11.20
50587;PMS7003;70782;50.514;30.816;2024-03-25T01:41:19;24.70;24.30;15.70
50587;PMS7003;70782;50.514;30.816;2024-03-25T01:42:22;37.00;33.30;21.10
50587;PMS7003;70782;50.514;30.816;2024-03-25T01:43:24;41.10;35.80;23.70
50587;PMS7003;70782;50.514;30.816;2024-03-25T01:44:26;34.20;31.90;22.00
50587;PMS7003;70782;50.514;30.816;2024-03-25T01:45:30;39.80;35.10;23.50
50587;PMS7003;70782;50.514;30.816;2024-03-25T01:46:34;43.70;37.20;24.70
50587;PMS7003;70782;50.514;30.816;2024-03-25T01:47:36;37.50;35.20;23.70
50587;PMS7003;70782;50.514;30.816;2024-03-25T01:48:39;35.40;33.20;22.60
50587;PMS7003;70782;50.514;30.816;2024-03-25T01:49:41;49.60;39.30;25.20
50587;PMS7003;70782;50.514;30.816;2024-03-25T01:50:44;51.60;41.50;26.50
50587;PMS7003;70782;50.514;30.816;2024-03-25T01:51:46;47.10;40.40;27.40
50587;PMS7003;70782;50.514;30.816;2024-03-25T01:52:49;48.40;40.40;26.30
50587;PMS7003;70782;50.514;30.816;2024-03-25T01:53:52;40.10;35.80;24.20
50587;PMS7003;70782;50.514;30.816;2024-03-25T01:54:55;46.40;38.50;25.50
50587;PMS7003;70782;50.514;30.816;2024-03-25T01:55:57;54.10;44.60;28.40
50587;PMS7003;70782;50.514;30.816;2024-03-25T01:57:00;51.90;42.90;29.20
50587;PMS7003;70782;50.514;30.816;2024-03-25T01:58:03;64.50;50.70;33.40
50587;PMS7003;70782;50.514;30.816;2024-03-25T01:59:06;68.00;54.90;35.40
50587;PMS7003;70782;50.514;30.816;2024-03-25T02:00:09;66.60;52.00;32.60
50587;PMS7003;70782;50.514;30.816;2024-03-25T02:01:14;69.90;55.90;36.00
50587;PMS7003;70782;50.514;30.816;2024-03-25T02:02:16;65.90;52.30;34.00
50587;PMS7003;70782;50.514;30.816;2024-03-25T02:03:19;66.60;52.90;33.60
50587;PMS7003;70782;50.514;30.816;2024-03-25T02:04:22;35.20;29.90;5.70
50587;PMS7003;70782;50.514;30.816;2024-03-25T02:05:24;70.20;55.80;34.90
50587;PMS7003;70782;50.514;30.816;2024-03-25T02:06:27;80.70;64.10;37.00
50587;PMS7003;70782;50.514;30.816;2024-03-25T02:07:29;90.00;77.80;41.30
50587;PMS7003;70782;50.514;30.816;2024-03-25T02:08:32;88.30;76.10;39.10
50587;PMS7003;70782;50.514;30.816;2024-03-25T02:09:35;93.82;80.64;43.73
50587;PMS7003;70782;50.514;30.816;2024-03-25T02:10:38;79.82;63.91;37.91
50587;PMS7003;70782;50.514;30.816;2024-03-25T02:11:42;70.70;54.20;32.10
50587;PMS7003;70782;50.514;30.816;2024-03-25T02:12:45;62.50;50.80;31.60
50587;PMS7003;70782;50.514;30.816;2024-03-25T02:13:48;47.00;39.30;24.00
50587;PMS7003;70782;50.514;30.816;2024-03-25T02:14:50;36.40;32.60;21.20
50587;PMS7003;70782;50.514;30.816;2024-03-25T02:15:52;32.30;29.80;18.00
50587;PMS7003;70782;50.514;30.816;2024-03-25T02:16:55;28.40;26.60;18.90
50587;PMS7003;70782;50.514;30.816;2024-03-25T02:17:57;28.60;25.00;15.50
50587;PMS7003;70782;50.514;30.816;2024-03-25T02:18:59;23.90;22.30;14.30
50587;PMS7003;70782;50.514;30.816;2024-03-25T02:20:02;21.60;19.20;13.10
50587;PMS7003;70782;50.514;30.816;2024-03-25T02:21:06;19.20;17.10;12.00
50587;PMS7003;70782;50.514;30.816;2024-03-25T02:22:08;14.90;11.40;5.90
50587;PMS7003;70782;50.514;30.816;2024-03-25T02:23:11;20.40;19.30;12.50
50587;PMS7003;70782;50.514;30.816;2024-03-25T02:24:13;23.10;20.50;13.30
50587;PMS7003;70782;50.514;30.816;2024-03-25T02:25:19;17.00;14.50;10.30
50587;PMS7003;70782;50.514;30.816;2024-03-25T02:26:23;18.30;16.70;11.30
50587;PMS7003;70782;50.514;30.816;2024-03-25T02:27:26;15.20;13.40;9.60
50587;PMS7003;70782;50.514;30.816;2024-03-25T02:28:29;13.36;12.55;8.00
50587;PMS7003;70782;50.514;30.816;2024-03-25T02:29:34;12.10;12.10;8.30
50587;PMS7003;70782;50.514;30.816;2024-03-25T02:30:36;12.50;12.40;8.90
50587;PMS7003;70782;50.514;30.816;2024-03-25T02:31:39;8.90;8.30;5.20
50587;PMS7003;70782;50.514;30.816;2024-03-25T02:32:41;22.10;21.20;13.80
50587;PMS7003;70782;50.514;30.816;2024-03-25T02:33:43;51.40;41.60;24.20
50587;PMS7003;70782;50.514;30.816;2024-03-25T02:34:51;61.40;49.50;30.00
50587;PMS7003;70782;50.514;30.816;2024-03-25T02:35:53;64.20;48.90;29.00
50587;PMS7003;70782;50.514;30.816;2024-03-25T02:36:55;57.10;45.80;28.50
50587;PMS7003;70782;50.514;30.816;2024-03-25T02:37:58;45.20;38.90;26.60
50587;PMS7003;70782;50.514;30.816;2024-03-25T02:39:00;34.60;31.20;20.10
50587;PMS7003;70782;50.514;30.816;2024-03-25T02:40:02;22.10;20.30;12.60
50587;PMS7003;70782;50.514;30.816;2024-03-25T02:41:05;15.80;13.90;9.50
50587;PMS7003;70782;50.514;30.816;2024-03-25T02:42:08;9.40;9.40;7.30
50587;PMS7003;70782;50.514;30.816;2024-03-25T02:43:10;11.70;11.20;7.50
50587;PMS7003;70782;50.514;30.816;2024-03-25T02:44:13;11.55;9.45;6.73
50587;PMS7003;70782;50.514;30.816;2024-03-25T02:45:15;10.00;9.40;7.40
50587;PMS7003;70782;50.514;30.816;2024-03-25T02:46:18;13.00;12.50;7.50
50587;PMS7003;70782;50.514;30.816;2024-03-25T02:47:20;27.20;24.20;14.70
50587;PMS7003;70782;50.514;30.816;2024-03-25T02:48:22;29.50;27.40;20.00
50587;PMS7003;70782;50.514;30.816;2024-03-25T02:49:25;39.90;33.10;21.70
50587;PMS7003;70782;50.514;30.816;2024-03-25T02:50:27;40.70;34.30;22.60
50587;PMS7003;70782;50.514;30.816;2024-03-25T02:51:29;32.20;31.20;20.10
50587;PMS7003;70782;50.514;30.816;2024-03-25T02:52:31;28.70;26.50;17.10
50587;PMS7003;70782;50.514;30.816;2024-03-25T02:53:34;37.40;33.20;21.40
50587;PMS7003;70782;50.514;30.816;2024-03-25T02:54:36;36.00;33.90;22.10
50587;PMS7003;70782;50.514;30.816;2024-03-25T02:55:39;32.70;31.10;21.80
50587;PMS7003;70782;50.514;30.816;2024-03-25T02:56:41;31.00;28.20;19.10
50587;PMS7003;70782;50.514;30.816;2024-03-25T02:57:45;33.20;28.40;18.50
50587;PMS7003;70782;50.514;30.816;2024-03-25T02:58:47;26.10;23.30;15.90
50587;PMS7003;70782;50.514;30.816;2024-03-25T02:59:49;20.90;19.90;14.40
50587;PMS7003;70782;50.514;30.816;2024-03-25T03:00:51;20.20;20.10;14.90
50587;PMS7003;70782;50.514;30.816;2024-03-25T03:01:54;22.30;21.30;15.40
50587;PMS7003;70782;50.514;30.816;2024-03-25T03:02:56;18.40;15.40;10.70
50587;PMS7003;70782;50.514;30.816;2024-03-25T03:03:58;16.50;14.60;12.00
50587;PMS7003;70782;50.514;30.816;2024-03-25T03:05:00;16.10;15.90;11.30
50587;PMS7003;70782;50.514;30.816;2024-03-25T03:06:03;14.40;14.40;11.50
50587;PMS7003;70782;50.514;30.816;2024-03-25T03:07:05;15.90;13.60;10.10
50587;PMS7003;70782;50.514;30.816;2024-03-25T03:08:08;1.50;0.40;0.20
50587;PMS7003;70782;50.514;30.816;2024-03-25T03:09:10;11.40;10.80;8.30
50587;PMS7003;70782;50.514;30.816;2024-03-25T03:10:12;11.60;11.60;9.40
50587;PMS7003;70782;50.514;30.816;2024-03-25T03:11:15;11.30;10.90;8.70
50587;PMS7003;70782;50.514;30.816;2024-03-25T03:12:17;10.30;10.20;7.00
50587;PMS7003;70782;50.514;30.816;2024-03-25T03:13:19;10.10;10.10;6.60
50587;PMS7003;70782;50.514;30.816;2024-03-25T03:14:22;10.80;8.20;6.10
50587;PMS7003;70782;50.514;30.816;2024-03-25T03:15:24;11.10;8.30;5.80
50587;PMS7003;70782;50.514;30.816;2024-03-25T03:16:27;8.20;8.20;6.00
50587;PMS7003;70782;50.514;30.816;2024-03-25T03:17:29;8.00;7.10;5.00
50587;PMS7003;70782;50.514;30.816;2024-03-25T03:18:31;9.80;8.00;5.90
50587;PMS7003;70782;50.514;30.816;2024-03-25T03:19:33;10.00;9.70;7.50
50587;PMS7003;70782;50.514;30.816;2024-03-25T03:20:37;7.70;7.50;5.70
50587;PMS7003;70782;50.514;30.816;2024-03-25T03:21:39;7.40;7.40;5.70
50587;PMS7003;70782;50.514;30.816;2024-03-25T03:22:42;8.70;7.90;5.90
50587;PMS7003;70782;50.514;30.816;2024-03-25T03:23:44;9.40;8.70;6.80
50587;PMS7003;70782;50.514;30.816;2024-03-25T03:24:46;5.70;4.80;3.00
50587;PMS7003;70782;50.514;30.816;2024-03-25T03:25:50;8.60;8.40;6.10
50587;PMS7003;70782;50.514;30.816;2024-03-25T03:26:52;13.20;10.00;6.80
50587;PMS7003;70782;50.514;30.816;2024-03-25T03:27:55;12.20;12.00;8.10
50587;PMS7003;70782;50.514;30.816;2024-03-25T03:28:57;11.80;10.70;8.20
50587;PMS7003;70782;50.514;30.816;2024-03-25T03:29:59;5.30;3.00;1.70
50587;PMS7003;70782;50.514;30.816;2024-03-25T03:31:01;2.30;1.60;0.30
50587;PMS7003;70782;50.514;30.816;2024-03-25T03:32:04;9.40;8.30;7.00
50587;PMS7003;70782;50.514;30.816;2024-03-25T03:33:06;8.60;8.00;5.40
50587;PMS7003;70782;50.514;30.816;2024-03-25T03:34:09;9.60;9.60;6.90
50587;PMS7003;70782;50.514;30.816;2024-03-25T03:35:11;9.00;9.00;5.90
50587;PMS7003;70782;50.514;30.816;2024-03-25T03:36:15;7.40;7.40;5.90
50587;PMS7003;70782;50.514;30.816;2024-03-25T03:37:18;6.70;6.30;5.30
50587;PMS7003;70782;50.514;30.816;2024-03-25T03:38:20;7.80;7.80;5.60
50587;PMS7003;70782;50.514;30.816;2024-03-25T03:39:22;7.30;5.50;4.90
50587;PMS7003;70782;50.514;30.816;2024-03-25T03:40:24;6.90;6.50;5.70
50587;PMS7003;70782;50.514;30.816;2024-03-25T03:41:27;7.70;7.70;5.70
50587;PMS7003;70782;50.514;30.816;2024-03-25T03:42:29;8.70;8.60;5.90
50587;PMS7003;70782;50.514;30.816;2024-03-25T03:43:31;8.80;7.30;5.40
50587;PMS7003;70782;50.514;30.816;2024-03-25T03:44:34;7.20;7.00;5.60
50587;PMS7003;70782;50.514;30.816;2024-03-25T03:45:36;9.00;7.50;5.90
50587;PMS7003;70782;50.514;30.816;2024-03-25T03:46:38;9.00;7.50;5.30
50587;PMS7003;70782;50.514;30.816;2024-03-25T03:47:40;7.10;6.20;4.50
50587;PMS7003;70782;50.514;30.816;2024-03-25T03:48:43;6.60;6.40;4.90
50587;PMS7003;70782;50.514;30.816;2024-03-25T03:49:45;19.90;18.70;13.20
50587;PMS7003;70782;50.514;30.816;2024-03-25T03:50:47;46.90;38.90;25.70
50587;PMS7003;70782;50.514;30.816;2024-03-25T03:51:49;54.90;45.60;28.90
50587;PMS7003;70782;50.514;30.816;2024-03-25T03:52:52;65.00;52.30;32.20
50587;PMS7003;70782;50.514;30.816;2024-03-25T03:53:55;61.40;49.60;33.10
50587;PMS7003;70782;50.514;30.816;2024-03-25T03:54:57;68.50;54.20;33.30
50587;PMS7003;70782;50.514;30.816;2024-03-25T03:56:00;64.70;52.10;32.60
50587;PMS7003;70782;50.514;30.816;2024-03-25T03:57:04;60.40;48.10;31.40
50587;PMS7003;70782;50.514;30.816;2024-03-25T03:58:06;55.40;45.50;26.50
50587;PMS7003;70782;50.514;30.816;2024-03-25T03:59:09;59.60;47.00;30.40
50587;PMS7003;70782;50.514;30.816;2024-03-25T04:00:12;64.20;50.20;32.80
50587;PMS7003;70782;50.514;30.816;2024-03-25T04:01:15;70.00;56.40;35.40
50587;PMS7003;70782;50.514;30.816;2024-03-25T04:02:18;80.70;66.20;40.90
50587;PMS7003;70782;50.514;30.816;2024-03-25T04:03:21;72.80;57.60;36.60
50587;PMS7003;70782;50.514;30.816;2024-03-25T04:04:25;50.10;41.30;26.90
50587;PMS7003;70782;50.514;30.816;2024-03-25T04:05:28;36.64;34.55;23.36
50587;PMS7003;70782;50.514;30.816;2024-03-25T04:06:31;32.70;30.70;21.20
50587;PMS7003;70782;50.514;30.816;2024-03-25T04:07:33;34.40;29.50;21.10
50587;PMS7003;70782;50.514;30.816;2024-03-25T04:08:36;31.30;28.80;20.50
50587;PMS7003;70782;50.514;30.816;2024-03-25T04:09:38;25.30;23.60;15.30
50587;PMS7003;70782;50.514;30.816;2024-03-25T04:10:42;28.00;26.30;17.80
50587;PMS7003;70782;50.514;30.816;2024-03-25T04:11:45;36.10;30.50;18.40
50587;PMS7003;70782;50.514;30.816;2024-03-25T04:12:47;25.10;23.70;16.30
50587;PMS7003;70782;50.514;30.816;2024-03-25T04:13:49;28.50;25.60;17.50
50587;PMS7003;70782;50.514;30.816;2024-03-25T04:14:52;29.20;27.20;17.40
50587;PMS7003;70782;50.514;30.816;2024-03-25T04:15:54;22.30;22.00;14.60
50587;PMS7003;70782;50.514;30.816;2024-03-25T04:16:56;31.80;27.00;17.00
50587;PMS7003;70782;50.514;30.816;2024-03-25T04:17:59;27.60;24.70;15.70
50587;PMS7003;70782;50.514;30.816;2024-03-25T04:19:01;29.10;24.90;17.30
50587;PMS7003;70782;50.514;30.816;2024-03-25T04:20:03;29.30;26.70;17.70
50587;PMS7003;70782;50.514;30.816;2024-03-25T04:21:11;29.50;28.40;19.80
50587;PMS7003;70782;50.514;30.816;2024-03-25T04:22:14;35.50;27.80;17.90
50587;PMS7003;70782;50.514;30.816;2024-03-25T04:23:16;29.40;28.10;19.30
50587;PMS7003;70782;50.514;30.816;2024-03-25T04:24:18;29.20;27.00;18.90
50587;PMS7003;70782;50.514;30.816;2024-03-25T04:26:38;30.50;29.70;18.20
50587;PMS7003;70782;50.514;30.816;2024-03-25T04:27:40;29.80;26.50;17.70
50587;PMS7003;70782;50.514;30.816;2024-03-25T04:28:43;29.30;28.60;19.80
50587;PMS7003;70782;50.514;30.816;2024-03-25T04:29:45;34.30;30.40;19.90
50587;PMS7003;70782;50.514;30.816;2024-03-25T04:30:51;30.20;29.20;20.60
50587;PMS7003;70782;50.514;30.816;2024-03-25T04:31:54;39.50;33.90;22.10
50587;PMS7003;70782;50.514;30.816;2024-03-25T04:32:57;45.70;38.50;24.10
50587;PMS7003;70782;50.514;30.816;2024-03-25T04:33:59;42.40;37.50;21.90
50587;PMS7003;70782;50.514;30.816;2024-03-25T04:35:02;55.50;44.10;26.80
50587;PMS7003;70782;50.514;30.816;2024-03-25T04:36:05;56.80;46.70;28.40
50587;PMS7003;70782;50.514;30.816;2024-03-25T04:37:09;66.70;51.40;29.60
50587;PMS7003;70782;50.514;30.816;2024-03-25T04:38:11;65.00;51.60;29.60
50587;PMS7003;70782;50.514;30.816;2024-03-25T04:39:14;59.20;46.40;27.20
50587;PMS7003;70782;50.514;30.816;2024-03-25T04:40:16;50.60;40.20;24.50
50587;PMS7003;70782;50.514;30.816;2024-03-25T04:41:18;42.40;34.90;21.50
50587;PMS7003;70782;50.514;30.816;2024-03-25T04:42:21;38.90;33.60;21.00
50587;PMS7003;70782;50.514;30.816;2024-03-25T04:43:24;24.82;21.36;10.64
50587;PMS7003;70782;50.514;30.816;2024-03-25T04:44:27;17.20;14.50;9.30
50587;PMS7003;70782;50.514;30.816;2024-03-25T04:45:29;11.90;10.90;8.10
50587;PMS7003;70782;50.514;30.816;2024-03-25T04:46:32;13.80;11.60;8.00
50587;PMS7003;70782;50.514;30.816;2024-03-25T04:47:34;12.30;11.50;7.60
50587;PMS7003;70782;50.514;30.816;2024-03-25T04:48:36;12.20;11.00;8.10
50587;PMS7003;70782;50.514;30.816;2024-03-25T04:49:38;15.60;14.00;10.30
50587;PMS7003;70782;50.514;30.816;2024-03-25T04:50:41;24.80;23.70;14.90
50587;PMS7003;70782;50.514;30.816;2024-03-25T04:51:43;30.70;26.90;18.70
50587;PMS7003;70782;50.514;30.816;2024-03-25T04:52:45;35.40;32.00;18.90
50587;PMS7003;70782;50.514;30.816;2024-03-25T04:53:48;34.90;33.30;21.10
50587;PMS7003;70782;50.514;30.816;2024-03-25T04:54:50;36.10;33.10;21.30
50587;PMS7003;70782;50.514;30.816;2024-03-25T04:55:52;37.30;32.30;19.60
50587;PMS7003;70782;50.514;30.816;2024-03-25T04:56:54;23.80;22.70;14.00
50587;PMS7003;70782;50.514;30.816;2024-03-25T04:57:56;24.10;23.40;17.50
50587;PMS7003;70782;50.514;30.816;2024-03-25T04:58:59;24.70;21.50;13.30
50587;PMS7003;70782;50.514;30.816;2024-03-25T05:00:01;22.30;18.40;12.10
50587;PMS7003;70782;50.514;30.816;2024-03-25T05:01:04;14.90;14.00;9.90
50587;PMS7003;70782;50.514;30.816;2024-03-25T05:02:06;14.20;13.10;9.50
50587;PMS7003;70782;50.514;30.816;2024-03-25T05:03:09;8.70;8.70;7.10
50587;PMS7003;70782;50.514;30.816;2024-03-25T05:04:11;10.10;9.30;7.80
50587;PMS7003;70782;50.514;30.816;2024-03-25T05:05:13;6.20;5.20;2.50
50587;PMS7003;70782;50.514;30.816;2024-03-25T05:06:16;11.30;10.70;8.00
50587;PMS7003;70782;50.514;30.816;2024-03-25T05:07:18;12.30;11.50;8.80
50587;PMS7003;70782;50.514;30.816;2024-03-25T05:08:20;12.50;11.70;9.40
50587;PMS7003;70782;50.514;30.816;2024-03-25T05:09:22;11.90;10.60;8.00
50587;PMS7003;70782;50.514;30.816;2024-03-25T05:10:25;14.20;11.90;8.70
50587;PMS7003;70782;50.514;30.816;2024-03-25T05:11:27;11.80;11.10;9.20
50587;PMS7003;70782;50.514;30.816;2024-03-25T05:12:30;11.30;11.00;8.20
50587;PMS7003;70782;50.514;30.816;2024-03-25T05:13:32;12.40;11.70;8.50
50587;PMS7003;70782;50.514;30.816;2024-03-25T05:14:36;12.30;11.50;9.00
50587;PMS7003;70782;50.514;30.816;2024-03-25T05:15:38;16.00;13.60;9.10
50587;PMS7003;70782;50.514;30.816;2024-03-25T05:16:41;13.40;11.80;7.60
50587;PMS7003;70782;50.514;30.816;2024-03-25T05:17:43;14.90;13.40;9.40
50587;PMS7003;70782;50.514;30.816;2024-03-25T05:18:46;12.50;12.00;9.30
50587;PMS7003;70782;50.514;30.816;2024-03-25T05:19:48;13.20;11.30;8.10
50587;PMS7003;70782;50.514;30.816;2024-03-25T05:20:50;14.20;11.40;8.30
50587;PMS7003;70782;50.514;30.816;2024-03-25T05:21:52;11.20;11.20;7.70
50587;PMS7003;70782;50.514;30.816;2024-03-25T05:22:54;12.40;9.90;6.80
50587;PMS7003;70782;50.514;30.816;2024-03-25T05:23:57;13.90;11.90;7.30
50587;PMS7003;70782;50.514;30.816;2024-03-25T05:24:59;12.70;10.80;8.10
50587;PMS7003;70782;50.514;30.816;2024-03-25T05:26:02;11.80;10.40;8.10
50587;PMS7003;70782;50.514;30.816;2024-03-25T05:27:04;12.10;11.70;8.80
50587;PMS7003;70782;50.514;30.816;2024-03-25T05:28:07;11.90;11.90;9.10
50587;PMS7003;70782;50.514;30.816;2024-03-25T05:29:11;12.90;12.60;9.10
50587;PMS7003;70782;50.514;30.816;2024-03-25T05:30:13;14.40;12.40;8.80
50587;PMS7003;70782;50.514;30.816;2024-03-25T05:31:16;15.80;12.90;9.10
50587;PMS7003;70782;50.514;30.816;2024-03-25T05:32:18;12.20;11.50;7.90
50587;PMS7003;70782;50.514;30.816;2024-03-25T05:33:20;12.70;12.00;8.70
50587;PMS7003;70782;50.514;30.816;2024-03-25T05:34:24;12.80;12.80;9.50
50587;PMS7003;70782;50.514;30.816;2024-03-25T05:35:27;11.20;10.10;7.30
50587;PMS7003;70782;50.514;30.816;2024-03-25T05:36:29;11.50;11.20;8.20
50587;PMS7003;70782;50.514;30.816;2024-03-25T05:37:31;13.30;12.20;9.10
50587;PMS7003;70782;50.514;30.816;2024-03-25T05:38:34;15.90;15.90;11.10
50587;PMS7003;70782;50.514;30.816;2024-03-25T05:39:36;15.20;15.20;11.40
50587;PMS7003;70782;50.514;30.816;2024-03-25T05:40:38;19.40;18.00;12.20
50587;PMS7003;70782;50.514;30.816;2024-03-25T05:41:40;16.80;16.60;11.60
50587;PMS7003;70782;50.514;30.816;2024-03-25T05:42:45;22.40;20.20;13.80
50587;PMS7003;70782;50.514;30.816;2024-03-25T05:43:48;27.30;24.40;15.20
50587;PMS7003;70782;50.514;30.816;2024-03-25T05:44:50;26.90;24.00;15.40
50587;PMS7003;70782;50.514;30.816;2024-03-25T05:45:52;22.30;21.90;13.90
50587;PMS7003;70782;50.514;30.816;2024-03-25T05:46:55;24.00;21.18;12.82
50587;PMS7003;70782;50.514;30.816;2024-03-25T05:47:58;23.60;20.10;12.80
50587;PMS7003;70782;50.514;30.816;2024-03-25T05:49:03;26.70;23.30;15.90
50587;PMS7003;70782;50.514;30.816;2024-03-25T05:50:06;31.10;29.00;18.30
50587;PMS7003;70782;50.514;30.816;2024-03-25T05:51:09;33.40;30.50;18.50